Aviation Digital Data Service (ADDS)

Output produced by METARs form (1801 UTC 25 May 2017)
found at http://www.aviationweather.gov/adds/metars/
 
LWOH 251800Z 31003KT 9999 FEW015 BKN033 OVC070 12/10 Q1013
TAF LWOH 251730Z 2518/2618 VRB02KT 9999 FEW020 BKN040 OVC070 
     TEMPO 2518/2602 RA 
     PROB30 
     TEMPO 2518/2521 VRB20KT TSRA SCT030CB OVC040
       
LWSK 251800Z 30005KT 9999 BKN040 OVC080 15/11 Q1014 NOSIG
TAF LWSK 251730Z 2518/2618 34005KT 9999 SCT020 BKN040 OVC070 
     TEMPO 2518/2602 RA 
     PROB30 
     TEMPO 2518/2521 VRB20KT TSRA SCT030CB OVC040
       
LWOH 251800Z 31003KT 9999 FEW015 BKN033 OVC070 12/10 Q1013
TAF LWOH 251730Z 2518/2618 VRB02KT 9999 FEW020 BKN040 OVC070 
     TEMPO 2518/2602 RA 
     PROB30 
     TEMPO 2518/2521 VRB20KT TSRA SCT030CB OVC040
       
LWSK 251800Z 30005KT 9999 BKN040 OVC080 15/11 Q1014 NOSIG
TAF LWSK 251730Z 2518/2618 34005KT 9999 SCT020 BKN040 OVC070 
     TEMPO 2518/2602 RA 
     PROB30 
     TEMPO 2518/2521 VRB20KT TSRA SCT030CB OVC040